Challenge Plus — 9VJH7 — position and weather

sailwx.info

Track history (hours):
 
Tides and Currents Weather Stations Pressure Air Temp Water Temp Dewpoint Dewpoint Depression Visibility Wind Speed Wind Dir Waves Ship Positions

Challenge Plus

Last reported at 2014-Nov-23 22:32 UTC. Time now 2014-Nov-27 17:11 UTC.
Position N 01°16' E 104°12'.

Length 179 m; draft 11.9 m.

Type: Tanker. MMSI: 565267000.

Date/timePositionNaut miles runAvg speedWind from/ knotsBaromVisibWave heightAir tempDewpointWater temp
2014-Nov-23 22:32N 01°16' E 104°12'1211.7
2014-Nov-23 21:33N 01°14' E 104°00'1010.0
2014-Nov-23 20:33N 01°11' E 103°51'  
2014-Nov-21 11:19N 01°13' E 103°41'2 0.1
2014-Nov-20 07:19N 01°15' E 103°41'2 2.2
2014-Nov-20 06:30N 01°13' E 103°41'3 0.8
2014-Nov-20 02:28N 01°10' E 103°42'0 0.0
2014-Nov-20 00:28N 01°10' E 103°42'1 0.1
2014-Nov-19 15:32N 01°10' E 103°42'4 4.3
2014-Nov-19 14:33N 01°15' E 103°42'1 0.0
2014-Nov-17 11:09N 01°16' E 103°41'0 0.7
2014-Nov-17 10:33N 01°16' E 103°41'3 3.2
2014-Nov-17 09:33N 01°16' E 103°45'9 8.8
2014-Nov-17 08:33N 01°13' E 103°53'5 5.2
2014-Nov-17 07:31N 01°17' E 103°57'0 0.1
2014-Nov-17 06:25N 01°17' E 103°57'0 0.1
2014-Nov-17 05:25N 01°17' E 103°57'0 0.0
2014-Nov-17 04:07N 01°17' E 103°57'0 0.0
2014-Nov-17 03:13N 01°17' E 103°57'0 0.0
2014-Nov-17 02:31N 01°17' E 103°57'0 0.0
2014-Nov-17 01:25N 01°17' E 103°57'0 0.0
2014-Nov-17 00:13N 01°17' E 103°57'0 0.1
2014-Nov-16 23:19N 01°17' E 103°57'0 0.0
2014-Nov-16 22:25N 01°17' E 103°57'0 0.1
2014-Nov-16 21:31N 01°17' E 103°57'0 0.1
2014-Nov-16 20:22N 01°17' E 103°57'0 0.0
2014-Nov-16 19:28N 01°17' E 103°57'0 0.0
2014-Nov-16 18:31N 01°17' E 103°57'0 0.1
2014-Nov-16 17:31N 01°17' E 103°57'0 0.1
2014-Nov-16 16:25N 01°17' E 103°57'0 0.0
2014-Nov-16 15:07N 01°17' E 103°57'0 0.0
2014-Nov-16 14:31N 01°17' E 103°57'0 0.0
2014-Nov-16 13:31N 01°17' E 103°57'0 0.0
2014-Nov-16 12:25N 01°17' E 103°57'0 0.0
2014-Nov-16 11:31N 01°17' E 103°57'0 0.1
2014-Nov-16 10:13N 01°17' E 103°57'0 0.0
2014-Nov-16 09:31N 01°17' E 103°57'0 0.0
2014-Nov-16 08:28N 01°17' E 103°57'0 0.2
2014-Nov-16 07:19N 01°17' E 103°57'0 0.0
2014-Nov-16 06:31N 01°17' E 103°57'0 0.0
2014-Nov-16 05:19N 01°17' E 103°57'0 0.1
2014-Nov-16 04:31N 01°17' E 103°57'0 0.0
2014-Nov-16 03:13N 01°17' E 103°57'0 0.1
2014-Nov-16 02:04N 01°17' E 103°57'0 0.0
2014-Nov-16 01:31N 01°17' E 103°57'0 0.0
2014-Nov-16 00:31N 01°17' E 103°57'0 0.0
2014-Nov-15 22:31N 01°17' E 103°57'0 0.0
2014-Nov-15 21:31N 01°17' E 103°57'0 0.0
2014-Nov-15 20:31N 01°17' E 103°57'0 0.0
2014-Nov-15 19:13N 01°17' E 103°57'0 0.0
2014-Nov-15 18:31N 01°17' E 103°57'0 0.0
2014-Nov-15 17:31N 01°17' E 103°57'0 0.1
2014-Nov-15 16:31N 01°17' E 103°57'0 0.0
2014-Nov-15 15:31N 01°17' E 103°57'0 0.0
2014-Nov-15 14:31N 01°17' E 103°57'0 0.0
2014-Nov-15 13:25N 01°17' E 103°57'0 0.0
2014-Nov-15 12:22N 01°17' E 103°57'0 0.0
2014-Nov-15 11:31N 01°17' E 103°57'0 0.1
2014-Nov-15 10:31N 01°17' E 103°57'0 0.0
2014-Nov-15 09:32N 01°17' E 103°57'5 4.5
2014-Nov-15 08:30N 01°17' E 104°02'5 5.8
2014-Nov-15 07:33N 01°22' E 104°02'9 8.3
2014-Nov-15 06:29N 01°26' E 103°54'  
Track history (hours):
 
Tides and Currents Weather Stations Pressure Air Temp Water Temp Dewpoint Dewpoint Depression Visibility Wind Speed Wind Dir Waves Ship Positions

Challenge Plus

Last reported at 2014-Nov-23 22:32 UTC. Time now 2014-Nov-27 17:11 UTC.
Position N 01°16' E 104°12'.

Length 179 m; draft 11.9 m.

Type: Tanker. MMSI: 565267000.

Date/timePositionNaut miles runAvg speedWind from/ knotsBaromVisibWave heightAir tempDewpointWater temp
2014-Nov-23 22:32N 01°16' E 104°12'1211.7
2014-Nov-23 21:33N 01°14' E 104°00'1010.0
2014-Nov-23 20:33N 01°11' E 103°51'  
2014-Nov-21 11:19N 01°13' E 103°41'2 0.1
2014-Nov-20 07:19N 01°15' E 103°41'2 2.2
2014-Nov-20 06:30N 01°13' E 103°41'3 0.8
2014-Nov-20 02:28N 01°10' E 103°42'0 0.0
2014-Nov-20 00:28N 01°10' E 103°42'1 0.1
2014-Nov-19 15:32N 01°10' E 103°42'4 4.3
2014-Nov-19 14:33N 01°15' E 103°42'1 0.0
2014-Nov-17 11:09N 01°16' E 103°41'0 0.7
2014-Nov-17 10:33N 01°16' E 103°41'3 3.2
2014-Nov-17 09:33N 01°16' E 103°45'9 8.8
2014-Nov-17 08:33N 01°13' E 103°53'5 5.2
2014-Nov-17 07:31N 01°17' E 103°57'0 0.1
2014-Nov-17 06:25N 01°17' E 103°57'0 0.1
2014-Nov-17 05:25N 01°17' E 103°57'0 0.0
2014-Nov-17 04:07N 01°17' E 103°57'0 0.0
2014-Nov-17 03:13N 01°17' E 103°57'0 0.0
2014-Nov-17 02:31N 01°17' E 103°57'0 0.0
2014-Nov-17 01:25N 01°17' E 103°57'0 0.0
2014-Nov-17 00:13N 01°17' E 103°57'0 0.1
2014-Nov-16 23:19N 01°17' E 103°57'0 0.0
2014-Nov-16 22:25N 01°17' E 103°57'0 0.1
2014-Nov-16 21:31N 01°17' E 103°57'0 0.1
2014-Nov-16 20:22N 01°17' E 103°57'0 0.0
2014-Nov-16 19:28N 01°17' E 103°57'0 0.0
2014-Nov-16 18:31N 01°17' E 103°57'0 0.1
2014-Nov-16 17:31N 01°17' E 103°57'0 0.1
2014-Nov-16 16:25N 01°17' E 103°57'0 0.0
2014-Nov-16 15:07N 01°17' E 103°57'0 0.0
2014-Nov-16 14:31N 01°17' E 103°57'0 0.0
2014-Nov-16 13:31N 01°17' E 103°57'0 0.0
2014-Nov-16 12:25N 01°17' E 103°57'0 0.0
2014-Nov-16 11:31N 01°17' E 103°57'0 0.1
2014-Nov-16 10:13N 01°17' E 103°57'0 0.0
2014-Nov-16 09:31N 01°17' E 103°57'0 0.0
2014-Nov-16 08:28N 01°17' E 103°57'0 0.2
2014-Nov-16 07:19N 01°17' E 103°57'0 0.0
2014-Nov-16 06:31N 01°17' E 103°57'0 0.0
2014-Nov-16 05:19N 01°17' E 103°57'0 0.1
2014-Nov-16 04:31N 01°17' E 103°57'0 0.0
2014-Nov-16 03:13N 01°17' E 103°57'0 0.1
2014-Nov-16 02:04N 01°17' E 103°57'0 0.0
2014-Nov-16 01:31N 01°17' E 103°57'0 0.0
2014-Nov-16 00:31N 01°17' E 103°57'0 0.0
2014-Nov-15 22:31N 01°17' E 103°57'0 0.0
2014-Nov-15 21:31N 01°17' E 103°57'0 0.0
2014-Nov-15 20:31N 01°17' E 103°57'0 0.0
2014-Nov-15 19:13N 01°17' E 103°57'0 0.0
2014-Nov-15 18:31N 01°17' E 103°57'0 0.0
2014-Nov-15 17:31N 01°17' E 103°57'0 0.1
2014-Nov-15 16:31N 01°17' E 103°57'0 0.0
2014-Nov-15 15:31N 01°17' E 103°57'0 0.0
2014-Nov-15 14:31N 01°17' E 103°57'0 0.0
2014-Nov-15 13:25N 01°17' E 103°57'0 0.0
2014-Nov-15 12:22N 01°17' E 103°57'0 0.0
2014-Nov-15 11:31N 01°17' E 103°57'0 0.1
2014-Nov-15 10:31N 01°17' E 103°57'0 0.0
2014-Nov-15 09:32N 01°17' E 103°57'5 4.5
2014-Nov-15 08:30N 01°17' E 104°02'5 5.8
2014-Nov-15 07:33N 01°22' E 104°02'9 8.3
2014-Nov-15 06:29N 01°26' E 103°54'  

Dump ship's entire track history